createdAt,value
2023-05-02T00:01:29.047Z,32.45
2023-05-02T00:03:58.580Z,27.70
2023-05-02T00:06:28.486Z,32.55
2023-05-02T00:08:57.969Z,39.10
2023-05-02T00:11:27.466Z,27.65
2023-05-02T00:13:57.107Z,33.15
2023-05-02T00:16:26.335Z,34.20
2023-05-02T00:18:55.567Z,31.60
2023-05-02T00:21:24.909Z,31.23
2023-05-02T00:23:59.284Z,24.33
2023-05-02T00:26:29.900Z,33.40
2023-05-02T00:29:00.266Z,30.17
2023-05-02T00:31:29.577Z,29.73
2023-05-02T00:33:58.789Z,34.85
2023-05-02T00:36:28.479Z,22.67
2023-05-02T00:38:57.687Z,25.83
2023-05-02T00:41:27.122Z,29.40
2023-05-02T00:43:56.342Z,30.40
2023-05-02T00:46:25.825Z,24.80
2023-05-02T00:48:55.139Z,26.98
2023-05-02T00:51:24.404Z,23.80
2023-05-02T00:53:54.510Z,28.13
2023-05-02T00:56:23.732Z,28.55
2023-05-02T00:58:53.241Z,25.30
2023-05-02T01:02:12.960Z,27.85
2023-05-02T01:05:18.426Z,22.55
2023-05-02T01:08:29.688Z,22.63
2023-05-02T01:11:19.236Z,32.75
2023-05-02T01:13:53.753Z,30.17
2023-05-02T01:16:26.821Z,23.30
2023-05-02T01:18:59.291Z,21.98
2023-05-02T01:21:29.121Z,23.70
2023-05-02T01:24:25.477Z,17.88
2023-05-02T01:27:21.069Z,24.13
2023-05-02T01:29:54.494Z,25.63
2023-05-02T01:32:27.750Z,26.55
2023-05-02T01:34:59.890Z,21.38
2023-05-02T01:37:31.804Z,24.15
2023-05-02T01:40:14.927Z,22.45
2023-05-02T01:42:49.386Z,23.00
2023-05-02T01:45:20.792Z,19.00
2023-05-02T01:47:55.245Z,27.90
2023-05-02T01:50:30.724Z,21.38
2023-05-02T01:53:02.880Z,24.90
2023-05-02T01:55:36.606Z,21.15
2023-05-02T01:58:11.929Z,24.98
2023-05-02T02:00:46.813Z,21.13
2023-05-02T02:03:24.121Z,18.48
2023-05-02T02:05:56.653Z,21.33
2023-05-02T02:08:29.549Z,25.70
2023-05-02T02:11:13.867Z,23.92
2023-05-02T02:14:02.815Z,22.73
2023-05-02T02:16:38.680Z,21.23
2023-05-02T02:19:14.456Z,22.98
2023-05-02T02:21:49.510Z,24.38
2023-05-02T02:24:23.867Z,21.88
2023-05-02T02:26:53.742Z,17.90
2023-05-02T02:29:23.071Z,18.90
2023-05-02T02:31:52.214Z,18.17
2023-05-02T02:34:23.164Z,19.75
2023-05-02T02:37:12.807Z,20.52
2023-05-02T02:40:35.189Z,20.40
2023-05-02T02:43:22.165Z,19.77
2023-05-02T02:46:10.452Z,20.73
2023-05-02T02:49:22.460Z,21.15
2023-05-02T02:52:34.895Z,22.27
2023-05-02T02:55:48.681Z,15.43
2023-05-02T02:58:59.721Z,15.98
2023-05-02T03:01:33.719Z,14.40
2023-05-02T03:04:06.510Z,14.63
2023-05-02T03:06:35.957Z,15.48
2023-05-02T03:09:05.285Z,19.60
2023-05-02T03:11:34.498Z,27.75
2023-05-02T03:14:03.788Z,17.75
2023-05-02T03:16:41.151Z,16.65
2023-05-02T03:19:11.017Z,17.75
2023-05-02T03:21:40.375Z,15.20
2023-05-02T03:24:09.883Z,16.52
2023-05-02T03:26:39.372Z,15.57
2023-05-02T03:29:09.137Z,16.45
2023-05-02T03:31:38.471Z,13.82
2023-05-02T03:34:08.074Z,15.15
2023-05-02T03:36:37.384Z,14.38
2023-05-02T03:39:07.850Z,13.95
2023-05-02T03:41:37.649Z,20.52
2023-05-02T03:44:07.473Z,14.98
2023-05-02T03:46:37.357Z,20.45
2023-05-02T03:49:06.787Z,12.48
2023-05-02T03:51:36.666Z,18.83
2023-05-02T03:54:06.197Z,15.82
2023-05-02T03:56:35.575Z,20.42
2023-05-02T03:59:05.074Z,23.77
2023-05-02T04:01:34.509Z,12.48
2023-05-02T04:04:04.028Z,14.20
2023-05-02T04:06:33.541Z,13.40
2023-05-02T04:09:02.946Z,16.88
2023-05-02T04:11:32.382Z,15.52
2023-05-02T04:14:01.780Z,15.05
2023-05-02T04:16:31.394Z,15.15
2023-05-02T04:19:01.431Z,15.15
2023-05-02T04:21:30.920Z,14.18
2023-05-02T04:24:00.711Z,12.82
2023-05-02T04:26:30.027Z,15.00
2023-05-02T04:28:59.911Z,14.05
2023-05-02T04:31:30.414Z,11.45
2023-05-02T04:34:00.087Z,12.35
2023-05-02T04:36:30.025Z,18.13
2023-05-02T04:38:59.776Z,13.25
2023-05-02T04:41:29.616Z,15.00
2023-05-02T04:43:59.612Z,16.35
2023-05-02T04:46:29.290Z,14.93
2023-05-02T04:48:58.778Z,17.67
2023-05-02T04:51:30.064Z,13.50
2023-05-02T04:53:59.421Z,9.60
2023-05-02T04:56:28.820Z,11.45
2023-05-02T04:58:58.300Z,11.40
2023-05-02T05:01:35.400Z,14.77
2023-05-02T05:04:05.201Z,12.37
2023-05-02T05:06:35.003Z,11.93
2023-05-02T05:09:04.686Z,17.40
2023-05-02T05:11:34.093Z,11.65
2023-05-02T05:14:05.585Z,12.98
2023-05-02T05:16:35.841Z,12.38
2023-05-02T05:19:06.400Z,11.30
2023-05-02T05:21:36.080Z,14.73
2023-05-02T05:24:05.951Z,15.18
2023-05-02T05:26:35.429Z,13.45
2023-05-02T05:29:04.944Z,14.02
2023-05-02T05:31:34.459Z,19.08
2023-05-02T05:34:05.531Z,13.40
2023-05-02T05:36:35.078Z,15.48
2023-05-02T05:39:04.704Z,12.40
2023-05-02T05:41:35.284Z,10.30
2023-05-02T05:44:04.875Z,13.75
2023-05-02T05:46:34.483Z,10.90
2023-05-02T05:49:04.120Z,12.30
2023-05-02T05:51:33.458Z,10.38
2023-05-02T05:54:04.377Z,11.73
2023-05-02T05:56:34.969Z,13.40
2023-05-02T05:59:04.339Z,14.73
2023-05-02T06:01:35.160Z,11.63
2023-05-02T06:04:06.047Z,12.70
2023-05-02T06:06:35.760Z,12.77
2023-05-02T06:09:05.418Z,8.15
2023-05-02T06:11:34.876Z,9.15
2023-05-02T06:14:04.859Z,11.77
2023-05-02T06:19:19.571Z,8.13
2023-05-02T06:24:34.766Z,10.13
2023-05-02T06:27:04.139Z,10.35
2023-05-02T06:29:33.369Z,10.00
2023-05-02T06:32:02.594Z,9.68
2023-05-02T06:34:35.062Z,9.65
2023-05-02T06:37:04.544Z,9.30
2023-05-02T06:39:35.088Z,8.18
2023-05-02T06:42:04.559Z,11.13
2023-05-02T06:44:33.758Z,15.23
2023-05-02T06:47:03.060Z,7.82
2023-05-02T06:49:32.570Z,13.80
2023-05-02T06:52:01.900Z,8.10
2023-05-02T06:54:31.354Z,7.00
2023-05-02T06:57:01.991Z,9.88
2023-05-02T06:59:31.242Z,10.00
2023-05-02T07:02:00.821Z,7.90
2023-05-02T07:04:30.739Z,7.50
2023-05-02T07:07:00.062Z,11.27
2023-05-02T07:09:29.317Z,9.65
2023-05-02T07:11:58.640Z,10.13
2023-05-02T07:14:27.871Z,11.80
2023-05-02T07:16:57.197Z,10.18
2023-05-02T07:19:26.725Z,10.50
2023-05-02T07:21:56.057Z,9.90
2023-05-02T07:24:25.255Z,6.63
2023-05-02T07:26:54.512Z,6.45
2023-05-02T07:29:23.803Z,7.10
2023-05-02T07:31:53.176Z,7.80
2023-05-02T07:34:29.127Z,8.00
2023-05-02T07:37:04.520Z,9.50
2023-05-02T07:39:35.407Z,9.00
2023-05-02T07:42:04.800Z,8.07
2023-05-02T07:44:37.107Z,9.65
2023-05-02T07:47:07.573Z,10.68
2023-05-02T07:49:37.899Z,7.93
2023-05-02T07:52:07.386Z,7.93
2023-05-02T07:54:36.849Z,7.57
2023-05-02T07:57:09.312Z,11.07
2023-05-02T07:59:38.624Z,8.57
2023-05-02T08:02:08.489Z,10.52
2023-05-02T08:04:37.892Z,11.25
2023-05-02T08:07:07.652Z,14.13
2023-05-02T08:09:37.143Z,13.88
2023-05-02T08:12:07.080Z,10.00
2023-05-02T08:14:37.465Z,22.88
2023-05-02T08:17:06.690Z,11.52
2023-05-02T08:19:36.030Z,10.38
2023-05-02T08:22:05.453Z,16.55
2023-05-02T08:24:34.959Z,17.05
2023-05-02T08:27:07.794Z,13.15
2023-05-02T08:29:38.634Z,9.57
2023-05-02T08:32:08.334Z,9.13
2023-05-02T08:34:39.097Z,9.73
2023-05-02T08:37:14.248Z,12.52
2023-05-02T08:39:43.621Z,11.23
2023-05-02T08:42:13.211Z,13.88
2023-05-02T08:44:42.618Z,12.73
2023-05-02T08:47:16.109Z,17.20
2023-05-02T08:49:47.030Z,12.20
2023-05-02T08:52:18.900Z,14.40
2023-05-02T08:54:48.978Z,11.73
2023-05-02T08:57:18.256Z,12.88
2023-05-02T08:59:47.468Z,10.85
2023-05-02T09:02:42.440Z,9.40
2023-05-02T09:05:17.152Z,12.55
2023-05-02T09:07:52.422Z,15.85
2023-05-02T09:13:40.966Z,16.88
2023-05-02T09:16:19.505Z,13.75
2023-05-02T09:18:53.405Z,12.13
2023-05-02T09:21:27.467Z,11.30
2023-05-02T09:24:04.085Z,13.23
2023-05-02T09:26:34.527Z,10.63
2023-05-02T09:29:06.478Z,15.40
2023-05-02T09:34:23.505Z,17.23
2023-05-02T09:36:55.069Z,17.55
2023-05-02T09:39:27.437Z,14.88
2023-05-02T09:41:57.414Z,11.10
2023-05-02T09:44:39.316Z,15.45
2023-05-02T09:47:10.354Z,14.02
2023-05-02T09:49:50.675Z,13.68
2023-05-02T09:52:24.917Z,12.80
2023-05-02T09:54:54.355Z,12.38
2023-05-02T09:57:24.356Z,14.82
2023-05-02T10:00:00.551Z,18.92
2023-05-02T10:02:40.108Z,13.77
2023-05-02T10:05:14.463Z,17.30
2023-05-02T10:07:43.944Z,12.30
2023-05-02T10:10:20.469Z,16.38
2023-05-02T10:12:54.447Z,14.18
2023-05-02T10:15:28.387Z,15.00
2023-05-02T10:18:05.103Z,16.48
2023-05-02T10:20:41.939Z,17.77
2023-05-02T10:23:11.979Z,19.98
2023-05-02T10:25:42.163Z,18.52
2023-05-02T10:28:14.508Z,20.08
2023-05-02T10:30:44.800Z,17.92
2023-05-02T10:33:17.674Z,17.83
2023-05-02T10:35:48.458Z,18.95
2023-05-02T10:38:24.739Z,26.02
2023-05-02T10:41:27.884Z,25.02
2023-05-02T10:44:00.275Z,28.40
2023-05-02T10:46:38.720Z,20.60
2023-05-02T10:49:14.707Z,23.30
2023-05-02T10:51:45.905Z,21.30
2023-05-02T10:54:26.229Z,19.20
2023-05-02T10:57:09.599Z,20.75
2023-05-02T10:59:44.060Z,16.38
2023-05-02T11:02:26.237Z,17.95
2023-05-02T11:05:08.502Z,18.67
2023-05-02T11:07:39.315Z,18.55
2023-05-02T11:10:23.182Z,19.35
2023-05-02T11:13:02.244Z,20.42
2023-05-02T11:15:35.232Z,19.65
2023-05-02T11:18:08.805Z,19.35
2023-05-02T11:20:43.196Z,18.15
2023-05-02T11:23:27.521Z,20.63
2023-05-02T11:26:04.346Z,21.77
2023-05-02T11:28:42.462Z,22.20
2023-05-02T11:31:32.763Z,20.50
2023-05-02T11:34:04.519Z,24.70
2023-05-02T11:36:35.572Z,27.85
2023-05-02T11:39:06.818Z,21.08
2023-05-02T11:41:45.609Z,26.33
2023-05-02T11:44:14.762Z,15.60
2023-05-02T11:46:44.446Z,16.25
2023-05-02T11:49:15.104Z,19.25
2023-05-02T11:51:44.767Z,18.13
2023-05-02T11:54:23.976Z,14.32
2023-05-02T11:56:53.215Z,14.15
2023-05-02T11:59:22.424Z,15.30
2023-05-02T12:01:56.904Z,16.67
2023-05-02T12:04:27.654Z,16.55
2023-05-02T12:07:00.381Z,16.38
2023-05-02T12:09:29.658Z,18.95
2023-05-02T12:11:59.720Z,14.45
2023-05-02T12:14:34.595Z,21.77
2023-05-02T12:17:06.090Z,17.70
2023-05-02T12:19:38.108Z,20.00
2023-05-02T12:22:08.828Z,21.60
2023-05-02T12:24:38.379Z,14.40
2023-05-02T12:27:18.122Z,20.10
2023-05-02T12:29:49.748Z,18.38
2023-05-02T12:32:34.432Z,17.02
2023-05-02T12:35:05.335Z,26.27
2023-05-02T12:37:34.557Z,21.83
2023-05-02T12:40:04.084Z,26.48
2023-05-02T12:42:35.514Z,31.13
2023-05-02T12:45:04.876Z,28.77
2023-05-02T12:47:47.604Z,25.77
2023-05-02T12:50:16.989Z,21.17
2023-05-02T12:53:01.155Z,17.80
2023-05-02T12:55:30.399Z,20.52
2023-05-02T12:58:11.344Z,23.00
2023-05-02T13:00:45.434Z,25.13
2023-05-02T13:03:15.746Z,29.70
2023-05-02T13:05:44.906Z,22.73
2023-05-02T13:08:14.133Z,27.77
2023-05-02T13:10:44.178Z,23.33
2023-05-02T13:13:13.687Z,24.45
2023-05-02T13:15:43.035Z,24.38
2023-05-02T13:18:12.527Z,26.33
2023-05-02T13:20:41.846Z,39.28
2023-05-02T13:23:11.336Z,35.47
2023-05-02T13:25:40.883Z,35.05
2023-05-02T13:28:10.216Z,25.58
2023-05-02T13:30:39.717Z,31.33
2023-05-02T13:33:09.279Z,26.88
2023-05-02T13:35:38.874Z,37.67
2023-05-02T13:38:08.183Z,34.42
2023-05-02T13:40:37.520Z,24.83
2023-05-02T13:43:06.911Z,21.98
2023-05-02T13:45:36.626Z,34.00
2023-05-02T13:48:06.390Z,29.67
2023-05-02T13:50:44.229Z,30.00
2023-05-02T13:53:13.570Z,30.80
2023-05-02T13:55:42.861Z,34.58
2023-05-02T13:58:12.263Z,32.92
2023-05-02T14:00:41.671Z,25.73
2023-05-02T14:03:19.199Z,28.00
2023-05-02T14:05:48.713Z,28.37
2023-05-02T14:08:20.145Z,33.45
2023-05-02T14:10:49.704Z,23.23
2023-05-02T14:13:19.677Z,29.75
2023-05-02T14:15:49.450Z,25.27
2023-05-02T14:18:18.884Z,23.63
2023-05-02T14:20:48.289Z,31.13
2023-05-02T14:23:17.522Z,28.27
2023-05-02T14:25:46.783Z,26.90
2023-05-02T14:28:15.978Z,28.17
2023-05-02T14:30:45.110Z,24.95
2023-05-02T14:33:14.390Z,28.15
2023-05-02T14:35:43.903Z,22.67
2023-05-02T14:38:13.350Z,32.25
2023-05-02T14:40:42.550Z,29.80
2023-05-02T14:43:14.166Z,33.35
2023-05-02T14:45:43.389Z,33.45
2023-05-02T14:48:14.929Z,30.52
2023-05-02T14:50:44.683Z,33.75
2023-05-02T14:53:14.025Z,30.08
2023-05-02T14:55:44.178Z,29.42
2023-05-02T14:58:13.630Z,32.13
2023-05-02T15:00:43.159Z,30.77
2023-05-02T15:03:12.421Z,33.20
2023-05-02T15:05:42.841Z,31.45
2023-05-02T15:08:11.988Z,28.17
2023-05-02T15:10:41.674Z,36.10
2023-05-02T15:13:11.118Z,28.17
2023-05-02T15:15:40.396Z,33.10
2023-05-02T15:18:09.709Z,29.77
2023-05-02T15:20:39.097Z,30.00
2023-05-02T15:23:08.299Z,23.83
2023-05-02T15:25:37.484Z,29.10
2023-05-02T15:28:09.053Z,35.90
2023-05-02T15:30:38.323Z,30.50
2023-05-02T15:33:07.868Z,27.38
2023-05-02T15:35:37.357Z,27.40
2023-05-02T15:38:07.587Z,23.35
2023-05-02T15:40:36.803Z,35.70
2023-05-02T15:43:07.067Z,33.15
2023-05-02T15:45:36.276Z,32.90
2023-05-02T15:48:05.729Z,34.00
2023-05-02T15:50:35.086Z,35.78
2023-05-02T15:53:04.256Z,28.60
2023-05-02T15:55:36.305Z,38.75
2023-05-02T15:58:05.822Z,37.90
2023-05-02T16:00:34.982Z,31.13
2023-05-02T16:03:05.029Z,30.63
2023-05-02T16:05:35.710Z,28.33
2023-05-02T16:08:05.309Z,32.53
2023-05-02T16:10:37.231Z,31.00
2023-05-02T16:13:06.398Z,26.15
2023-05-02T16:15:36.079Z,34.00
2023-05-02T16:18:05.612Z,31.63
2023-05-02T16:20:37.968Z,31.30
2023-05-02T16:23:07.160Z,28.23
2023-05-02T16:25:36.679Z,35.33
2023-05-02T16:28:06.706Z,44.28
2023-05-02T16:30:38.642Z,36.88
2023-05-02T16:33:08.096Z,37.97
2023-05-02T16:35:37.260Z,41.25
2023-05-02T16:38:09.975Z,40.95
2023-05-02T16:40:39.466Z,39.58
2023-05-02T16:43:09.777Z,41.05
2023-05-02T16:45:39.712Z,40.08
2023-05-02T16:48:09.019Z,40.05
2023-05-02T16:50:38.175Z,40.85
2023-05-02T16:53:07.460Z,37.67
2023-05-02T16:55:36.602Z,27.83
2023-05-02T16:58:05.930Z,38.03
2023-05-02T17:00:35.241Z,38.65
2023-05-02T17:03:05.621Z,38.03
2023-05-02T17:05:35.403Z,35.63
2023-05-02T17:08:04.719Z,35.70
2023-05-02T17:10:34.097Z,39.90
2023-05-02T17:13:03.790Z,42.30
2023-05-02T17:15:39.455Z,33.28
2023-05-02T17:18:09.030Z,33.53
2023-05-02T17:20:38.736Z,32.92
2023-05-02T17:23:08.157Z,35.10
2023-05-02T17:25:51.023Z,30.55
2023-05-02T17:28:21.156Z,42.00
2023-05-02T17:30:55.302Z,33.70
2023-05-02T17:33:26.168Z,36.60
2023-05-02T17:35:55.486Z,32.28
2023-05-02T17:38:24.690Z,34.40
2023-05-02T17:40:54.140Z,32.60
2023-05-02T17:43:23.488Z,32.78
2023-05-02T17:45:52.678Z,36.47
2023-05-02T17:48:22.276Z,32.45
2023-05-02T17:50:52.004Z,33.22
2023-05-02T17:53:21.192Z,33.88
2023-05-02T17:55:51.165Z,40.00
2023-05-02T17:58:20.792Z,34.33
2023-05-02T18:00:50.019Z,30.05
2023-05-02T18:03:19.444Z,35.08
2023-05-02T18:05:48.896Z,36.33
2023-05-02T18:08:18.139Z,34.53
2023-05-02T18:10:47.371Z,32.30
2023-05-02T18:13:16.665Z,30.48
2023-05-02T18:15:55.470Z,28.95
2023-05-02T18:18:24.904Z,36.90
2023-05-02T18:20:54.241Z,33.10
2023-05-02T18:23:23.606Z,37.15
2023-05-02T18:25:52.854Z,32.33
2023-05-02T18:28:22.241Z,31.92
2023-05-02T18:30:51.474Z,25.73
2023-05-02T18:33:20.728Z,37.45
2023-05-02T18:35:50.902Z,29.98
2023-05-02T18:38:20.728Z,37.38
2023-05-02T18:40:51.388Z,34.75
2023-05-02T18:43:20.643Z,26.58
2023-05-02T18:45:49.896Z,30.58
2023-05-02T18:48:19.105Z,30.60
2023-05-02T18:50:48.447Z,31.88
2023-05-02T18:53:17.781Z,32.78
2023-05-02T18:55:48.116Z,34.83
2023-05-02T18:58:17.283Z,30.73
2023-05-02T19:00:46.635Z,36.80
2023-05-02T19:03:16.194Z,27.17
2023-05-02T19:05:45.778Z,25.55
2023-05-02T19:08:15.028Z,31.30
2023-05-02T19:10:44.219Z,26.00
2023-05-02T19:13:13.852Z,34.92
2023-05-02T19:15:54.022Z,30.92
2023-05-02T19:18:24.136Z,25.77
2023-05-02T19:20:53.581Z,29.90
2023-05-02T19:23:22.795Z,30.60
2023-05-02T19:25:52.249Z,29.00
2023-05-02T19:28:21.498Z,30.00
2023-05-02T19:30:50.701Z,28.38
2023-05-02T19:33:20.318Z,27.08
2023-05-02T19:35:51.295Z,25.45
2023-05-02T19:38:21.272Z,32.83
2023-05-02T19:40:50.493Z,30.48
2023-05-02T19:43:19.641Z,27.88
2023-05-02T19:45:48.852Z,27.05
2023-05-02T19:48:18.139Z,23.15
2023-05-02T19:50:47.406Z,26.73
2023-05-02T19:53:16.687Z,27.85
2023-05-02T19:55:46.008Z,28.88
2023-05-02T19:58:15.242Z,22.85
2023-05-02T20:00:44.422Z,24.27
2023-05-02T20:03:13.754Z,26.00
2023-05-02T20:05:42.952Z,26.42
2023-05-02T20:08:12.233Z,25.08
2023-05-02T20:10:41.740Z,32.95
2023-05-02T20:13:14.828Z,32.85
2023-05-02T20:15:44.089Z,32.08
2023-05-02T20:18:13.292Z,29.90
2023-05-02T20:20:42.661Z,32.00
2023-05-02T20:23:12.408Z,32.28
2023-05-02T20:25:42.932Z,39.65
2023-05-02T20:28:12.596Z,52.60
2023-05-02T20:30:42.959Z,59.67
2023-05-02T20:33:16.169Z,65.18
2023-05-02T20:36:06.508Z,57.80
2023-05-02T20:38:36.714Z,56.50
2023-05-02T20:41:08.771Z,53.78
2023-05-02T20:43:40.667Z,55.13
2023-05-02T20:46:15.011Z,49.53
2023-05-02T20:48:44.547Z,46.92
2023-05-02T20:51:14.100Z,46.63
2023-05-02T20:53:43.636Z,43.92
2023-05-02T20:56:12.823Z,42.17
2023-05-02T20:58:42.161Z,40.15
2023-05-02T21:01:11.791Z,43.78
2023-05-02T21:03:42.077Z,41.63
2023-05-02T21:06:11.494Z,42.22
2023-05-02T21:08:40.793Z,42.30
2023-05-02T21:11:17.504Z,37.83
2023-05-02T21:13:46.857Z,44.88
2023-05-02T21:16:21.073Z,38.22
2023-05-02T21:18:50.518Z,39.95
2023-05-02T21:21:19.691Z,34.80
2023-05-02T21:23:48.928Z,36.83
2023-05-02T21:26:21.223Z,46.03
2023-05-02T21:28:54.474Z,30.67
2023-05-02T21:31:23.903Z,32.30
2023-05-02T21:33:53.231Z,28.52
2023-05-02T21:36:23.545Z,34.75
2023-05-02T21:38:54.525Z,40.10
2023-05-02T21:41:23.947Z,42.35
2023-05-02T21:43:53.533Z,37.53
2023-05-02T21:46:23.048Z,33.80
2023-05-02T21:48:52.413Z,33.20
2023-05-02T21:51:22.248Z,36.65
2023-05-02T21:53:51.916Z,37.80
2023-05-02T21:56:21.297Z,38.20
2023-05-02T21:58:52.261Z,40.33
2023-05-02T22:01:21.776Z,38.70
2023-05-02T22:03:51.245Z,40.75
2023-05-02T22:06:20.647Z,34.72
2023-05-02T22:08:49.990Z,33.92
2023-05-02T22:11:19.485Z,38.95
2023-05-02T22:13:49.489Z,31.55
2023-05-02T22:16:18.965Z,38.70
2023-05-02T22:18:50.452Z,41.72
2023-05-02T22:21:19.892Z,47.58
2023-05-02T22:23:49.287Z,38.60
2023-05-02T22:26:18.646Z,29.63
2023-05-02T22:28:48.106Z,24.05
2023-05-02T22:31:17.926Z,25.88
2023-05-02T22:33:50.820Z,27.77
2023-05-02T22:36:21.538Z,44.53
2023-05-02T22:38:50.872Z,28.38
2023-05-02T22:41:20.170Z,28.35
2023-05-02T22:43:49.602Z,25.30
2023-05-02T22:46:19.353Z,21.90
2023-05-02T22:48:50.139Z,24.15
2023-05-02T22:51:20.022Z,24.45
2023-05-02T22:53:50.154Z,25.42
2023-05-02T22:56:19.883Z,25.25
2023-05-02T22:58:50.851Z,30.50
2023-05-02T23:01:20.267Z,32.88
2023-05-02T23:03:50.280Z,27.52
2023-05-02T23:06:19.962Z,25.83
2023-05-02T23:08:49.356Z,23.25
2023-05-02T23:11:18.779Z,33.05
2023-05-02T23:13:48.072Z,32.72
2023-05-02T23:16:17.466Z,28.80
2023-05-02T23:18:48.646Z,28.67
2023-05-02T23:21:18.791Z,28.20
2023-05-02T23:23:48.185Z,22.20
2023-05-02T23:26:17.527Z,26.67
2023-05-02T23:28:46.878Z,25.48
2023-05-02T23:31:16.318Z,30.33
2023-05-02T23:33:46.863Z,26.40
2023-05-02T23:36:16.520Z,25.02
2023-05-02T23:38:45.972Z,25.65
2023-05-02T23:41:15.446Z,22.60
2023-05-02T23:43:45.293Z,21.80
2023-05-02T23:46:14.597Z,26.13
2023-05-02T23:48:43.994Z,25.20
2023-05-02T23:51:13.361Z,28.48
2023-05-02T23:53:42.642Z,31.60
2023-05-02T23:56:12.140Z,22.88
2023-05-02T23:58:41.619Z,30.42
